Stations météo

réclame
Mon MeteoGroup
Formigueres, France (7737): Température de l'air & dewpoint: 17.09.2017 22:00:00 - 23.09.2017 22:00:00 (CEST)Formigueres, France (7737): Vitesse du vent & gusts: 17.09.2017 22:00:00 - 23.09.2017 22:00:00 (CEST)Formigueres, France (7737): Direction du vent: 17.09.2017 22:00:00 - 23.09.2017 22:00:00 (CEST)Formigueres, France (7737): Quantités de précipitations: 17.09.2017 22:00:00 - 23.09.2017 22:00:00 (CEST)
Date & Time tt [°C] td [°C] ff [km/h] ff [knt] fx [km/h] fx [knt] dd rr [mm]
23.09.2017 22:00:00 - - - - - - - -
23.09.2017 21:00:00 8,7 4,7 15 8 22 12 WSW 0,0
23.09.2017 20:00:00 10,4 6,7 11 6 18 10 WSW -
23.09.2017 19:00:00 15,1 9,2 5 3 24 13 N 0,0
23.09.2017 18:00:00 16,6 10,0 13 7 34 18 NNE 0,0
23.09.2017 17:00:00 17,7 10,3 18 10 34 18 NNE 0,0
23.09.2017 16:00:00 17,8 10,4 15 8 29 16 N 0,0
23.09.2017 15:00:00 17,4 8,0 8 4 31 17 SE 0,0
23.09.2017 14:00:00 16,5 7,7 16 9 39 21 S -
23.09.2017 13:00:00 16,8 8,5 18 10 39 21 S 0,0
23.09.2017 12:00:00 15,3 7,3 18 10 35 19 S 0,0
23.09.2017 11:00:00 14,5 7,5 15 8 28 15 S 0,0
23.09.2017 10:00:00 9,4 7,8 4 2 13 7 W 0,0
23.09.2017 09:00:00 7,6 6,2 9 5 16 9 WSW 0,0
23.09.2017 08:00:00 7,3 6,4 11 6 16 9 WSW -
23.09.2017 07:00:00 7,3 6,6 8 4 15 8 W 0,0
23.09.2017 06:00:00 7,2 6,5 4 2 13 7 W 0,0
23.09.2017 05:00:00 7,2 6,5 8 4 13 7 WSW 0,0
23.09.2017 04:00:00 7,7 6,9 5 3 11 6 W 0,0
23.09.2017 03:00:00 7,6 6,8 5 3 11 6 WSW 0,0
23.09.2017 02:00:00 7,2 6,6 4 2 9 5 SSW -
23.09.2017 01:00:00 7,5 6,8 2 1 15 8 SSW 0,0
23.09.2017 00:00:00 7,2 6,6 9 5 13 7 WSW 0,0
22.09.2017 23:00:00 7,0 6,4 4 2 13 7 SW 0,0
22.09.2017 22:00:00 7,2 6,8 8 4 11 6 WSW 0,0
22.09.2017 21:00:00 7,2 6,3 4 2 13 7 NNE 0,0
22.09.2017 20:00:00 7,5 6,6 9 5 13 7 WSW -
22.09.2017 19:00:00 9,0 7,6 9 5 15 8 S 0,2
22.09.2017 18:00:00 8,8 8,3 4 2 16 9 NNE 5,0
22.09.2017 17:00:00 8,7 7,8 11 6 26 14 SSW 6,0
22.09.2017 16:00:00 10,6 8,5 15 8 29 16 SW 3,0
22.09.2017 15:00:00 14,1 7,4 16 9 35 19 N 0,0
22.09.2017 14:00:00 18,1 8,6 16 9 37 20 NNE -
22.09.2017 13:00:00 16,8 8,0 18 10 31 17 NNE 0,0
22.09.2017 12:00:00 16,6 7,2 11 6 22 12 NNE 0,0
22.09.2017 11:00:00 13,3 6,6 4 2 9 5 ENE 0,0
22.09.2017 10:00:00 9,4 5,6 4 2 8 4 NE 0,0
22.09.2017 09:00:00 6,3 3,5 4 2 11 6 SW 0,0
22.09.2017 08:00:00 3,5 1,0 4 2 22 12 SW -
22.09.2017 07:00:00 4,5 1,9 8 4 21 11 W 0,0
22.09.2017 06:00:00 5,2 2,0 9 5 22 12 WSW 0,0
22.09.2017 05:00:00 5,3 2,3 13 7 24 13 WSW 0,0
22.09.2017 04:00:00 4,5 2,5 11 6 21 11 WSW 0,0
22.09.2017 03:00:00 4,8 2,5 9 5 22 12 WSW 0,0
22.09.2017 02:00:00 5,3 2,6 13 7 18 10 WSW -
22.09.2017 01:00:00 5,6 2,8 11 6 18 10 WSW 0,0
22.09.2017 00:00:00 6,1 2,9 11 6 22 12 W 0,0
21.09.2017 23:00:00 6,2 3,4 8 4 18 10 WSW 0,0
21.09.2017 22:00:00 7,9 3,9 8 4 21 11 W 0,0
21.09.2017 21:00:00 9,1 4,9 11 6 16 9 WSW 0,0
21.09.2017 20:00:00 11,2 4,4 4 2 22 12 ESE -
21.09.2017 19:00:00 14,5 4,5 11 6 28 15 N 0,0
21.09.2017 18:00:00 17,4 5,3 18 10 35 19 N 0,0
21.09.2017 17:00:00 18,4 6,2 18 10 34 18 N 0,0
21.09.2017 16:00:00 19,2 6,3 18 10 37 20 N 0,0
21.09.2017 15:00:00 19,8 6,5 21 11 35 19 N 0,0
21.09.2017 14:00:00 20,3 6,6 16 9 29 16 NNE -
21.09.2017 13:00:00 19,7 6,1 16 9 28 15 NNE 0,0
21.09.2017 12:00:00 19,0 4,7 9 5 21 11 NNE 0,0
21.09.2017 11:00:00 16,7 8,6 5 3 11 6 NE 0,0
21.09.2017 10:00:00 11,6 6,7 4 2 9 5 NE 0,0
21.09.2017 09:00:00 8,3 3,3 0 0 16 9 N 0,0
21.09.2017 08:00:00 4,2 0,7 9 5 21 11 WSW -
21.09.2017 07:00:00 4,3 1,3 8 4 22 12 WSW 0,0
21.09.2017 06:00:00 4,5 1,3 11 6 22 12 WSW 0,0
21.09.2017 05:00:00 4,3 1,0 11 6 22 12 WSW 0,0
21.09.2017 04:00:00 3,9 0,6 9 5 21 11 WSW 0,0
21.09.2017 03:00:00 4,3 0,3 9 5 21 11 W 0,0
21.09.2017 02:00:00 4,7 0,5 11 6 21 11 WSW -
21.09.2017 01:00:00 4,9 0,7 11 6 22 12 WSW 0,0
21.09.2017 00:00:00 4,4 1,6 11 6 21 11 SW 0,0
20.09.2017 23:00:00 5,5 1,8 13 7 22 12 WSW 0,0
20.09.2017 22:00:00 5,3 2,5 8 4 22 12 W 0,0
20.09.2017 21:00:00 6,8 3,8 11 6 18 10 WSW 0,0
20.09.2017 20:00:00 7,6 4,7 5 3 15 8 SW -
20.09.2017 19:00:00 12,9 6,2 8 4 24 13 NE 0,0
20.09.2017 18:00:00 14,8 6,4 15 8 29 16 NNE 0,0
20.09.2017 17:00:00 15,5 6,5 16 9 29 16 NNE 0,0
20.09.2017 16:00:00 15,6 6,0 16 9 31 17 NNE 0,0
20.09.2017 15:00:00 15,5 5,1 18 10 29 16 NNE 0,0
20.09.2017 14:00:00 15,1 4,7 15 8 31 17 NNE -
20.09.2017 13:00:00 14,0 4,3 18 10 34 18 NNE 0,0
20.09.2017 12:00:00 12,7 0,1 16 9 28 15 NNE 0,0
20.09.2017 11:00:00 10,5 -0,1 4 2 15 8 ENE 0,0
20.09.2017 10:00:00 6,4 2,7 4 2 9 5 E 0,0
20.09.2017 09:00:00 2,5 1,2 2 1 15 8 SSE 0,0
20.09.2017 08:00:00 -1,7 -2,4 5 3 18 10 SW -
20.09.2017 07:00:00 -0,6 -1,9 9 5 21 11 SW 0,0
20.09.2017 06:00:00 -1,0 -2,7 5 3 21 11 W 0,0
20.09.2017 05:00:00 0,1 -1,3 11 6 18 10 WSW 0,0
20.09.2017 04:00:00 1,3 0,1 11 6 22 12 WSW 0,0
20.09.2017 03:00:00 3,2 2,5 11 6 26 14 NNW 0,0
20.09.2017 02:00:00 4,0 3,1 16 9 34 18 N -
20.09.2017 01:00:00 6,3 0,8 13 7 29 16 WNW 0,0
20.09.2017 00:00:00 6,3 1,0 15 8 31 17 W 0,0
19.09.2017 23:00:00 4,0 0,1 5 3 24 13 NNW 0,0
19.09.2017 22:00:00 5,2 -0,4 9 5 26 14 WNW 0,0
19.09.2017 21:00:00 5,3 -0,5 4 2 24 13 WSW 0,0
19.09.2017 20:00:00 6,3 -0,9 5 3 39 21 W -
19.09.2017 19:00:00 7,7 -0,1 11 6 44 24 W 0,0
19.09.2017 18:00:00 8,9 -0,4 16 9 55 30 W 0,0
19.09.2017 17:00:00 10,5 0,8 18 10 46 25 N 0,0
19.09.2017 16:00:00 10,4 -0,4 15 8 55 30 W 0,0
19.09.2017 15:00:00 9,4 -0,2 18 10 55 30 WSW 0,0
19.09.2017 14:00:00 9,4 -1,4 15 8 50 27 NNW -
19.09.2017 13:00:00 10,0 -0,8 18 10 54 29 NNW 0,0
19.09.2017 12:00:00 8,0 -1,0 26 14 59 32 NNW 0,0
19.09.2017 11:00:00 7,5 -0,2 18 10 52 28 NNW 0,0
19.09.2017 10:00:00 6,4 1,1 15 8 35 19 N 0,0
19.09.2017 09:00:00 4,9 2,1 11 6 29 16 N 0,0
19.09.2017 08:00:00 2,5 1,8 8 4 18 10 N -
19.09.2017 07:00:00 2,7 2,1 2 1 13 7 N 0,0
19.09.2017 06:00:00 1,4 0,4 8 4 15 8 NNE 0,0
19.09.2017 05:00:00 2,1 1,1 5 3 22 12 NW 0,0
19.09.2017 04:00:00 1,7 0,2 11 6 22 12 W 0,0
19.09.2017 03:00:00 1,9 0,4 9 5 18 10 W 0,0
19.09.2017 02:00:00 3,6 1,6 5 3 18 10 N -
19.09.2017 01:00:00 4,1 2,4 8 4 22 12 N 0,0
19.09.2017 00:00:00 5,7 3,2 5 3 22 12 NW 0,0
18.09.2017 23:00:00 5,1 3,3 9 5 28 15 NE 0,0
18.09.2017 22:00:00 5,0 3,7 8 4 18 10 NNE 0,0
18.09.2017 21:00:00 5,5 4,5 9 5 24 13 NNE 0,0
18.09.2017 20:00:00 6,1 5,4 9 5 26 14 N -
18.09.2017 19:00:00 6,9 5,8 11 6 31 17 NNE 0,2
18.09.2017 18:00:00 8,5 7,1 15 8 39 21 NNE 0,2
18.09.2017 17:00:00 9,2 6,6 16 9 34 18 NNE 0,0
18.09.2017 16:00:00 9,5 5,5 11 6 22 12 NNE 0,0
18.09.2017 15:00:00 10,2 6,0 11 6 29 16 N 0,0
18.09.2017 14:00:00 9,7 6,4 9 5 31 17 NNE -
18.09.2017 13:00:00 8,5 5,4 13 7 26 14 S 0,0
18.09.2017 12:00:00 7,4 6,5 5 3 15 8 NNE 0,2
18.09.2017 11:00:00 5,7 5,3 4 2 16 9 NE 0,8
18.09.2017 10:00:00 5,7 4,7 4 2 8 4 WSW 0,0
18.09.2017 09:00:00 4,9 4,3 2 1 9 5 SW 0,0
18.09.2017 08:00:00 4,2 3,8 4 2 9 5 WSW -
18.09.2017 07:00:00 3,7 3,1 5 3 13 7 WSW 0,0
18.09.2017 06:00:00 3,4 2,8 8 4 13 7 WSW 0,0
18.09.2017 05:00:00 3,6 3,2 5 3 11 6 WSW 0,0
18.09.2017 04:00:00 4,2 3,9 5 3 13 7 W 0,0
18.09.2017 03:00:00 4,8 4,7 4 2 8 4 W 0,0
18.09.2017 02:00:00 4,7 4,6 2 1 8 4 N -
18.09.2017 01:00:00 4,9 4,6 4 2 9 5 S 0,0
18.09.2017 00:00:00 5,6 5,5 2 1 13 7 ENE 0,0
17.09.2017 23:00:00 5,8 5,7 9 5 16 9 NNE 0,0
17.09.2017 22:00:00 4,5 4,1 0 0 5 3 N 0,0

tt = Température de l'air
td = dewpoint
ff = Vitesse du vent
fx = gusts
dd = Direction du vent
rr = Quantités de précipitations

stations d'obs. à proximité